sensor_id;sensor_type;location;lat;lon;timestamp;P1;durP1;ratioP1;P2;durP2;ratioP2
67804;SDS011;54603;45.638;11.714;2022-11-04T00:01:40;9.00;;;6.80;;
67804;SDS011;54603;45.638;11.714;2022-11-04T00:04:07;8.20;;;6.70;;
67804;SDS011;54603;45.638;11.714;2022-11-04T00:06:34;8.20;;;6.30;;
67804;SDS011;54603;45.638;11.714;2022-11-04T00:09:00;9.10;;;6.90;;
67804;SDS011;54603;45.638;11.714;2022-11-04T00:11:26;8.50;;;7.20;;
67804;SDS011;54603;45.638;11.714;2022-11-04T00:14:11;8.10;;;6.90;;
67804;SDS011;54603;45.638;11.714;2022-11-04T00:16:37;10.60;;;7.30;;
67804;SDS011;54603;45.638;11.714;2022-11-04T00:19:21;9.10;;;6.90;;
67804;SDS011;54603;45.638;11.714;2022-11-04T00:21:47;7.60;;;6.50;;
67804;SDS011;54603;45.638;11.714;2022-11-04T00:24:31;7.70;;;6.50;;
67804;SDS011;54603;45.638;11.714;2022-11-04T00:27:12;8.90;;;7.10;;
67804;SDS011;54603;45.638;11.714;2022-11-04T00:29:58;7.30;;;6.50;;
67804;SDS011;54603;45.638;11.714;2022-11-04T00:32:24;7.90;;;7.10;;
67804;SDS011;54603;45.638;11.714;2022-11-04T00:35:09;7.90;;;6.60;;
67804;SDS011;54603;45.638;11.714;2022-11-04T00:37:36;7.30;;;6.60;;
67804;SDS011;54603;45.638;11.714;2022-11-04T00:40:03;9.00;;;7.60;;
67804;SDS011;54603;45.638;11.714;2022-11-04T00:42:29;8.70;;;7.30;;
67804;SDS011;54603;45.638;11.714;2022-11-04T00:44:55;7.90;;;7.00;;
67804;SDS011;54603;45.638;11.714;2022-11-04T00:47:20;8.10;;;6.60;;
67804;SDS011;54603;45.638;11.714;2022-11-04T00:49:46;8.60;;;6.60;;
67804;SDS011;54603;45.638;11.714;2022-11-04T00:52:11;7.70;;;6.40;;
67804;SDS011;54603;45.638;11.714;2022-11-04T00:54:37;8.70;;;7.20;;
67804;SDS011;54603;45.638;11.714;2022-11-04T00:57:03;9.80;;;6.80;;
67804;SDS011;54603;45.638;11.714;2022-11-04T00:59:28;7.70;;;6.80;;
67804;SDS011;54603;45.638;11.714;2022-11-04T01:01:54;8.20;;;7.10;;
67804;SDS011;54603;45.638;11.714;2022-11-04T01:04:20;8.90;;;6.90;;
67804;SDS011;54603;45.638;11.714;2022-11-04T01:06:46;7.90;;;6.80;;
67804;SDS011;54603;45.638;11.714;2022-11-04T01:09:11;8.20;;;6.80;;
67804;SDS011;54603;45.638;11.714;2022-11-04T01:11:37;8.70;;;7.40;;
67804;SDS011;54603;45.638;11.714;2022-11-04T01:14:03;9.20;;;7.10;;
67804;SDS011;54603;45.638;11.714;2022-11-04T01:16:29;8.20;;;7.00;;
67804;SDS011;54603;45.638;11.714;2022-11-04T01:18:55;7.80;;;6.80;;
67804;SDS011;54603;45.638;11.714;2022-11-04T01:21:20;7.50;;;6.20;;
67804;SDS011;54603;45.638;11.714;2022-11-04T01:23:46;9.80;;;6.90;;
67804;SDS011;54603;45.638;11.714;2022-11-04T01:34:24;7.70;;;6.60;;
67804;SDS011;54603;45.638;11.714;2022-11-04T01:36:49;7.10;;;5.70;;
67804;SDS011;54603;45.638;11.714;2022-11-04T01:39:15;9.90;;;6.90;;
67804;SDS011;54603;45.638;11.714;2022-11-04T01:41:41;7.40;;;6.60;;
67804;SDS011;54603;45.638;11.714;2022-11-04T01:47:11;7.80;;;6.70;;
67804;SDS011;54603;45.638;11.714;2022-11-04T01:49:39;9.70;;;7.10;;
67804;SDS011;54603;45.638;11.714;2022-11-04T01:52:06;7.20;;;6.50;;
67804;SDS011;54603;45.638;11.714;2022-11-04T01:54:34;7.20;;;5.90;;
67804;SDS011;54603;45.638;11.714;2022-11-04T01:57:01;6.80;;;6.10;;
67804;SDS011;54603;45.638;11.714;2022-11-04T01:59:29;8.60;;;6.30;;
67804;SDS011;54603;45.638;11.714;2022-11-04T02:01:58;7.60;;;6.40;;
67804;SDS011;54603;45.638;11.714;2022-11-04T02:04:23;7.20;;;6.00;;
67804;SDS011;54603;45.638;11.714;2022-11-04T02:06:49;8.50;;;6.70;;
67804;SDS011;54603;45.638;11.714;2022-11-04T02:09:26;7.00;;;6.20;;
67804;SDS011;54603;45.638;11.714;2022-11-04T02:11:53;7.00;;;6.30;;
67804;SDS011;54603;45.638;11.714;2022-11-04T02:14:38;7.20;;;6.50;;
67804;SDS011;54603;45.638;11.714;2022-11-04T02:17:24;8.10;;;6.50;;
67804;SDS011;54603;45.638;11.714;2022-11-04T02:20:20;6.90;;;6.20;;
67804;SDS011;54603;45.638;11.714;2022-11-04T02:28:49;6.50;;;5.90;;
67804;SDS011;54603;45.638;11.714;2022-11-04T02:38:17;8.60;;;6.00;;
67804;SDS011;54603;45.638;11.714;2022-11-04T02:40:53;6.50;;;5.80;;
67804;SDS011;54603;45.638;11.714;2022-11-04T02:45:51;6.40;;;5.70;;
67804;SDS011;54603;45.638;11.714;2022-11-04T02:48:34;7.10;;;6.00;;
67804;SDS011;54603;45.638;11.714;2022-11-04T02:51:14;6.00;;;5.30;;
67804;SDS011;54603;45.638;11.714;2022-11-04T02:53:57;6.00;;;5.40;;
67804;SDS011;54603;45.638;11.714;2022-11-04T02:56:27;6.70;;;5.90;;
67804;SDS011;54603;45.638;11.714;2022-11-04T02:58:55;6.30;;;5.60;;
67804;SDS011;54603;45.638;11.714;2022-11-04T03:01:25;5.90;;;5.30;;
67804;SDS011;54603;45.638;11.714;2022-11-04T03:03:56;6.70;;;6.00;;
67804;SDS011;54603;45.638;11.714;2022-11-04T03:06:26;5.90;;;5.30;;
67804;SDS011;54603;45.638;11.714;2022-11-04T03:08:53;6.20;;;5.60;;
67804;SDS011;54603;45.638;11.714;2022-11-04T03:11:20;6.10;;;5.10;;
67804;SDS011;54603;45.638;11.714;2022-11-04T03:21:38;6.80;;;5.60;;
67804;SDS011;54603;45.638;11.714;2022-11-04T03:24:07;5.20;;;4.70;;
67804;SDS011;54603;45.638;11.714;2022-11-04T03:26:40;6.50;;;5.40;;
67804;SDS011;54603;45.638;11.714;2022-11-04T03:31:43;6.40;;;5.50;;
67804;SDS011;54603;45.638;11.714;2022-11-04T03:34:15;6.40;;;5.30;;
67804;SDS011;54603;45.638;11.714;2022-11-04T03:36:40;5.90;;;5.10;;
67804;SDS011;54603;45.638;11.714;2022-11-04T03:39:06;6.50;;;5.40;;
67804;SDS011;54603;45.638;11.714;2022-11-04T03:41:36;6.70;;;5.20;;
67804;SDS011;54603;45.638;11.714;2022-11-04T03:44:08;6.30;;;5.70;;
67804;SDS011;54603;45.638;11.714;2022-11-04T03:46:33;6.80;;;5.40;;
67804;SDS011;54603;45.638;11.714;2022-11-04T03:48:59;6.20;;;5.00;;
67804;SDS011;54603;45.638;11.714;2022-11-04T03:51:26;5.80;;;5.20;;
67804;SDS011;54603;45.638;11.714;2022-11-04T03:53:52;5.30;;;4.70;;
67804;SDS011;54603;45.638;11.714;2022-11-04T03:56:26;5.20;;;4.70;;
67804;SDS011;54603;45.638;11.714;2022-11-04T04:04:54;5.70;;;5.20;;
67804;SDS011;54603;45.638;11.714;2022-11-04T04:12:53;5.40;;;4.90;;
67804;SDS011;54603;45.638;11.714;2022-11-04T04:15:23;6.00;;;5.10;;
67804;SDS011;54603;45.638;11.714;2022-11-04T04:17:56;5.50;;;5.00;;
67804;SDS011;54603;45.638;11.714;2022-11-04T04:20:26;6.80;;;5.40;;
67804;SDS011;54603;45.638;11.714;2022-11-04T04:22:54;5.80;;;5.20;;
67804;SDS011;54603;45.638;11.714;2022-11-04T04:25:24;5.50;;;4.90;;
67804;SDS011;54603;45.638;11.714;2022-11-04T04:28:09;4.80;;;4.30;;
67804;SDS011;54603;45.638;11.714;2022-11-04T04:30:37;5.00;;;4.50;;
67804;SDS011;54603;45.638;11.714;2022-11-04T04:33:05;6.40;;;5.00;;
67804;SDS011;54603;45.638;11.714;2022-11-04T04:35:51;5.20;;;4.70;;
67804;SDS011;54603;45.638;11.714;2022-11-04T04:38:28;7.00;;;4.90;;
67804;SDS011;54603;45.638;11.714;2022-11-04T04:41:19;5.00;;;4.50;;
67804;SDS011;54603;45.638;11.714;2022-11-04T04:44:24;5.90;;;4.90;;
67804;SDS011;54603;45.638;11.714;2022-11-04T04:47:10;6.20;;;5.30;;
67804;SDS011;54603;45.638;11.714;2022-11-04T04:49:57;5.00;;;4.50;;
67804;SDS011;54603;45.638;11.714;2022-11-04T04:52:26;5.50;;;4.90;;
67804;SDS011;54603;45.638;11.714;2022-11-04T04:54:55;5.00;;;4.50;;
67804;SDS011;54603;45.638;11.714;2022-11-04T04:57:20;4.90;;;4.40;;
67804;SDS011;54603;45.638;11.714;2022-11-04T04:59:46;5.10;;;4.60;;
67804;SDS011;54603;45.638;11.714;2022-11-04T05:02:11;4.90;;;4.50;;
67804;SDS011;54603;45.638;11.714;2022-11-04T05:04:37;5.10;;;4.60;;
67804;SDS011;54603;45.638;11.714;2022-11-04T05:07:03;4.80;;;4.40;;
67804;SDS011;54603;45.638;11.714;2022-11-04T05:09:30;4.90;;;4.40;;
67804;SDS011;54603;45.638;11.714;2022-11-04T05:11:56;5.10;;;4.60;;
67804;SDS011;54603;45.638;11.714;2022-11-04T05:14:22;5.20;;;4.70;;
67804;SDS011;54603;45.638;11.714;2022-11-04T05:16:47;5.00;;;4.50;;
67804;SDS011;54603;45.638;11.714;2022-11-04T05:19:13;5.50;;;4.60;;
67804;SDS011;54603;45.638;11.714;2022-11-04T05:21:38;4.60;;;4.00;;
67804;SDS011;54603;45.638;11.714;2022-11-04T05:24:04;5.00;;;4.50;;
67804;SDS011;54603;45.638;11.714;2022-11-04T05:26:30;4.80;;;4.40;;
67804;SDS011;54603;45.638;11.714;2022-11-04T05:28:55;5.00;;;4.50;;
67804;SDS011;54603;45.638;11.714;2022-11-04T05:31:21;5.10;;;4.60;;
67804;SDS011;54603;45.638;11.714;2022-11-04T05:33:46;5.10;;;4.60;;
67804;SDS011;54603;45.638;11.714;2022-11-04T05:36:12;4.60;;;4.20;;
67804;SDS011;54603;45.638;11.714;2022-11-04T05:38:40;4.80;;;4.30;;
67804;SDS011;54603;45.638;11.714;2022-11-04T05:41:07;4.90;;;4.40;;
67804;SDS011;54603;45.638;11.714;2022-11-04T05:43:34;5.00;;;4.50;;
67804;SDS011;54603;45.638;11.714;2022-11-04T05:46:00;5.00;;;4.50;;
67804;SDS011;54603;45.638;11.714;2022-11-04T05:48:26;4.90;;;4.40;;
67804;SDS011;54603;45.638;11.714;2022-11-04T05:50:52;5.70;;;4.40;;
67804;SDS011;54603;45.638;11.714;2022-11-04T05:53:18;5.20;;;4.30;;
67804;SDS011;54603;45.638;11.714;2022-11-04T05:55:43;4.10;;;3.80;;
67804;SDS011;54603;45.638;11.714;2022-11-04T05:58:10;4.80;;;4.40;;
67804;SDS011;54603;45.638;11.714;2022-11-04T06:00:37;4.40;;;3.90;;
67804;SDS011;54603;45.638;11.714;2022-11-04T06:03:03;4.80;;;4.40;;
67804;SDS011;54603;45.638;11.714;2022-11-04T06:05:29;4.80;;;4.30;;
67804;SDS011;54603;45.638;11.714;2022-11-04T06:07:57;4.40;;;4.00;;
67804;SDS011;54603;45.638;11.714;2022-11-04T06:10:23;4.90;;;4.10;;
67804;SDS011;54603;45.638;11.714;2022-11-04T06:12:50;5.10;;;4.30;;
67804;SDS011;54603;45.638;11.714;2022-11-04T06:15:16;4.60;;;4.10;;
67804;SDS011;54603;45.638;11.714;2022-11-04T06:17:42;4.70;;;4.20;;
67804;SDS011;54603;45.638;11.714;2022-11-04T06:20:08;4.00;;;3.60;;
67804;SDS011;54603;45.638;11.714;2022-11-04T06:22:35;4.30;;;3.90;;
67804;SDS011;54603;45.638;11.714;2022-11-04T06:25:00;4.30;;;3.50;;
67804;SDS011;54603;45.638;11.714;2022-11-04T06:27:28;5.30;;;4.50;;
67804;SDS011;54603;45.638;11.714;2022-11-04T06:29:55;4.60;;;4.10;;
67804;SDS011;54603;45.638;11.714;2022-11-04T06:32:21;4.60;;;4.10;;
67804;SDS011;54603;45.638;11.714;2022-11-04T06:34:47;4.50;;;4.10;;
67804;SDS011;54603;45.638;11.714;2022-11-04T06:37:12;4.50;;;4.10;;
67804;SDS011;54603;45.638;11.714;2022-11-04T06:39:38;4.70;;;4.30;;
67804;SDS011;54603;45.638;11.714;2022-11-04T06:42:03;5.10;;;4.60;;
67804;SDS011;54603;45.638;11.714;2022-11-04T06:44:29;4.40;;;3.90;;
67804;SDS011;54603;45.638;11.714;2022-11-04T06:46:55;4.10;;;3.70;;
67804;SDS011;54603;45.638;11.714;2022-11-04T06:49:21;3.70;;;3.40;;
67804;SDS011;54603;45.638;11.714;2022-11-04T06:51:47;3.70;;;3.30;;
67804;SDS011;54603;45.638;11.714;2022-11-04T06:54:13;4.00;;;3.60;;
67804;SDS011;54603;45.638;11.714;2022-11-04T06:56:40;4.30;;;3.70;;
67804;SDS011;54603;45.638;11.714;2022-11-04T06:59:08;3.80;;;3.40;;
67804;SDS011;54603;45.638;11.714;2022-11-04T07:01:38;4.40;;;4.00;;
67804;SDS011;54603;45.638;11.714;2022-11-04T07:04:05;4.10;;;3.70;;
67804;SDS011;54603;45.638;11.714;2022-11-04T07:06:32;4.30;;;3.90;;
67804;SDS011;54603;45.638;11.714;2022-11-04T07:09:00;4.30;;;3.90;;
67804;SDS011;54603;45.638;11.714;2022-11-04T07:11:27;4.60;;;3.80;;
67804;SDS011;54603;45.638;11.714;2022-11-04T07:13:54;3.90;;;3.50;;
67804;SDS011;54603;45.638;11.714;2022-11-04T07:16:19;4.40;;;3.60;;
67804;SDS011;54603;45.638;11.714;2022-11-04T07:18:45;4.70;;;4.20;;
67804;SDS011;54603;45.638;11.714;2022-11-04T07:21:12;4.00;;;3.50;;
67804;SDS011;54603;45.638;11.714;2022-11-04T07:23:38;4.20;;;3.60;;
67804;SDS011;54603;45.638;11.714;2022-11-04T07:26:06;6.50;;;3.90;;
67804;SDS011;54603;45.638;11.714;2022-11-04T07:28:35;5.60;;;3.50;;
67804;SDS011;54603;45.638;11.714;2022-11-04T07:31:02;5.70;;;3.90;;
67804;SDS011;54603;45.638;11.714;2022-11-04T07:33:31;5.70;;;4.10;;
67804;SDS011;54603;45.638;11.714;2022-11-04T07:36:06;6.50;;;3.90;;
67804;SDS011;54603;45.638;11.714;2022-11-04T07:38:51;6.80;;;4.40;;
67804;SDS011;54603;45.638;11.714;2022-11-04T07:41:23;8.30;;;4.00;;
67804;SDS011;54603;45.638;11.714;2022-11-04T07:43:58;5.80;;;4.00;;
67804;SDS011;54603;45.638;11.714;2022-11-04T07:46:29;5.80;;;3.90;;
67804;SDS011;54603;45.638;11.714;2022-11-04T07:48:56;5.40;;;3.60;;
67804;SDS011;54603;45.638;11.714;2022-11-04T07:51:23;4.70;;;3.50;;
67804;SDS011;54603;45.638;11.714;2022-11-04T07:53:49;4.90;;;3.90;;
67804;SDS011;54603;45.638;11.714;2022-11-04T07:56:14;7.30;;;3.80;;
67804;SDS011;54603;45.638;11.714;2022-11-04T07:58:40;6.10;;;3.70;;
67804;SDS011;54603;45.638;11.714;2022-11-04T08:01:10;6.40;;;4.00;;
67804;SDS011;54603;45.638;11.714;2022-11-04T08:03:37;4.80;;;3.70;;
67804;SDS011;54603;45.638;11.714;2022-11-04T08:06:03;5.00;;;4.10;;
67804;SDS011;54603;45.638;11.714;2022-11-04T08:08:30;4.50;;;4.10;;
67804;SDS011;54603;45.638;11.714;2022-11-04T08:10:57;5.00;;;4.10;;
67804;SDS011;54603;45.638;11.714;2022-11-04T08:13:31;6.10;;;4.00;;
67804;SDS011;54603;45.638;11.714;2022-11-04T08:16:09;7.50;;;4.30;;
67804;SDS011;54603;45.638;11.714;2022-11-04T08:18:37;5.70;;;3.60;;
67804;SDS011;54603;45.638;11.714;2022-11-04T08:21:04;4.70;;;3.40;;
67804;SDS011;54603;45.638;11.714;2022-11-04T08:23:30;7.00;;;3.80;;
67804;SDS011;54603;45.638;11.714;2022-11-04T08:25:56;5.60;;;4.00;;
67804;SDS011;54603;45.638;11.714;2022-11-04T08:28:22;5.80;;;3.70;;
67804;SDS011;54603;45.638;11.714;2022-11-04T08:30:58;4.90;;;4.00;;
67804;SDS011;54603;45.638;11.714;2022-11-04T08:33:27;11.40;;;4.40;;
67804;SDS011;54603;45.638;11.714;2022-11-04T08:35:54;4.50;;;3.80;;
67804;SDS011;54603;45.638;11.714;2022-11-04T08:38:22;4.70;;;3.80;;
67804;SDS011;54603;45.638;11.714;2022-11-04T08:40:48;5.10;;;4.30;;
67804;SDS011;54603;45.638;11.714;2022-11-04T08:43:13;5.10;;;3.80;;
67804;SDS011;54603;45.638;11.714;2022-11-04T08:45:42;4.50;;;3.30;;
67804;SDS011;54603;45.638;11.714;2022-11-04T08:48:09;4.00;;;3.40;;
67804;SDS011;54603;45.638;11.714;2022-11-04T08:50:35;4.70;;;3.40;;
67804;SDS011;54603;45.638;11.714;2022-11-04T08:53:01;4.10;;;3.40;;
67804;SDS011;54603;45.638;11.714;2022-11-04T08:55:28;5.10;;;3.30;;
67804;SDS011;54603;45.638;11.714;2022-11-04T08:57:54;4.80;;;3.60;;
67804;SDS011;54603;45.638;11.714;2022-11-04T09:00:20;5.20;;;3.50;;
67804;SDS011;54603;45.638;11.714;2022-11-04T09:02:45;5.90;;;3.60;;
67804;SDS011;54603;45.638;11.714;2022-11-04T09:05:11;5.20;;;3.80;;
67804;SDS011;54603;45.638;11.714;2022-11-04T09:07:39;6.30;;;3.60;;
67804;SDS011;54603;45.638;11.714;2022-11-04T09:10:05;3.50;;;3.20;;
67804;SDS011;54603;45.638;11.714;2022-11-04T09:12:31;4.60;;;3.00;;
67804;SDS011;54603;45.638;11.714;2022-11-04T09:14:57;4.10;;;3.00;;
67804;SDS011;54603;45.638;11.714;2022-11-04T09:17:26;3.80;;;3.20;;
67804;SDS011;54603;45.638;11.714;2022-11-04T09:19:51;4.40;;;3.10;;
67804;SDS011;54603;45.638;11.714;2022-11-04T09:22:17;5.60;;;3.60;;
67804;SDS011;54603;45.638;11.714;2022-11-04T09:24:42;5.80;;;3.50;;
67804;SDS011;54603;45.638;11.714;2022-11-04T09:27:08;3.80;;;3.10;;
67804;SDS011;54603;45.638;11.714;2022-11-04T09:29:34;4.10;;;3.00;;
67804;SDS011;54603;45.638;11.714;2022-11-04T09:32:01;3.30;;;3.00;;
67804;SDS011;54603;45.638;11.714;2022-11-04T09:34:27;3.40;;;2.70;;
67804;SDS011;54603;45.638;11.714;2022-11-04T09:36:54;3.80;;;2.90;;
67804;SDS011;54603;45.638;11.714;2022-11-04T09:39:20;5.20;;;2.70;;
67804;SDS011;54603;45.638;11.714;2022-11-04T09:44:42;3.00;;;2.60;;
67804;SDS011;54603;45.638;11.714;2022-11-04T09:47:10;3.40;;;2.80;;
67804;SDS011;54603;45.638;11.714;2022-11-04T09:49:38;3.00;;;2.70;;
67804;SDS011;54603;45.638;11.714;2022-11-04T09:52:08;3.40;;;2.60;;
67804;SDS011;54603;45.638;11.714;2022-11-04T09:54:43;3.00;;;2.30;;
67804;SDS011;54603;45.638;11.714;2022-11-04T09:57:31;4.90;;;2.80;;
67804;SDS011;54603;45.638;11.714;2022-11-04T09:59:57;2.80;;;2.50;;
67804;SDS011;54603;45.638;11.714;2022-11-04T10:05:20;4.10;;;2.50;;
67804;SDS011;54603;45.638;11.714;2022-11-04T10:11:01;3.10;;;2.70;;
67804;SDS011;54603;45.638;11.714;2022-11-04T10:16:34;4.80;;;2.90;;
67804;SDS011;54603;45.638;11.714;2022-11-04T10:25:00;5.40;;;2.50;;
67804;SDS011;54603;45.638;11.714;2022-11-04T10:27:33;4.20;;;2.20;;
67804;SDS011;54603;45.638;11.714;2022-11-04T10:30:23;3.60;;;2.60;;
67804;SDS011;54603;45.638;11.714;2022-11-04T10:35:37;4.90;;;2.30;;
67804;SDS011;54603;45.638;11.714;2022-11-04T10:38:47;3.40;;;2.30;;
67804;SDS011;54603;45.638;11.714;2022-11-04T10:41:13;2.80;;;2.10;;
67804;SDS011;54603;45.638;11.714;2022-11-04T10:43:46;3.30;;;2.20;;
67804;SDS011;54603;45.638;11.714;2022-11-04T10:46:26;4.00;;;2.50;;
67804;SDS011;54603;45.638;11.714;2022-11-04T10:51:36;2.60;;;2.20;;
67804;SDS011;54603;45.638;11.714;2022-11-04T10:54:04;2.80;;;2.10;;
67804;SDS011;54603;45.638;11.714;2022-11-04T11:01:54;3.40;;;2.30;;
67804;SDS011;54603;45.638;11.714;2022-11-04T11:06:55;3.50;;;2.50;;
67804;SDS011;54603;45.638;11.714;2022-11-04T11:09:23;2.80;;;2.30;;
67804;SDS011;54603;45.638;11.714;2022-11-04T11:11:54;2.70;;;2.20;;
67804;SDS011;54603;45.638;11.714;2022-11-04T11:16:57;3.80;;;2.70;;
67804;SDS011;54603;45.638;11.714;2022-11-04T11:19:45;3.60;;;2.80;;
67804;SDS011;54603;45.638;11.714;2022-11-04T11:22:36;3.50;;;2.70;;
67804;SDS011;54603;45.638;11.714;2022-11-04T11:30:27;2.60;;;2.40;;
67804;SDS011;54603;45.638;11.714;2022-11-04T11:33:00;3.40;;;2.20;;
67804;SDS011;54603;45.638;11.714;2022-11-04T11:35:32;3.10;;;2.40;;
67804;SDS011;54603;45.638;11.714;2022-11-04T11:38:05;2.80;;;2.40;;
67804;SDS011;54603;45.638;11.714;2022-11-04T11:40:43;4.40;;;2.50;;
67804;SDS011;54603;45.638;11.714;2022-11-04T11:43:31;2.50;;;2.30;;
67804;SDS011;54603;45.638;11.714;2022-11-04T11:45:55;4.10;;;2.50;;
67804;SDS011;54603;45.638;11.714;2022-11-04T11:48:40;3.00;;;2.60;;
67804;SDS011;54603;45.638;11.714;2022-11-04T11:51:10;3.00;;;2.30;;
67804;SDS011;54603;45.638;11.714;2022-11-04T11:53:37;2.20;;;1.90;;
67804;SDS011;54603;45.638;11.714;2022-11-04T11:59:03;3.70;;;2.30;;
67804;SDS011;54603;45.638;11.714;2022-11-04T12:01:44;4.40;;;2.20;;
67804;SDS011;54603;45.638;11.714;2022-11-04T12:04:31;4.80;;;2.40;;
67804;SDS011;54603;45.638;11.714;2022-11-04T12:18:01;3.30;;;1.90;;
67804;SDS011;54603;45.638;11.714;2022-11-04T12:23:23;3.00;;;1.90;;
67804;SDS011;54603;45.638;11.714;2022-11-04T12:31:36;1.80;;;1.70;;
67804;SDS011;54603;45.638;11.714;2022-11-04T12:37:05;4.00;;;2.20;;
67804;SDS011;54603;45.638;11.714;2022-11-04T12:44:39;2.70;;;1.60;;
67804;SDS011;54603;45.638;11.714;2022-11-04T12:50:00;2.30;;;1.60;;
67804;SDS011;54603;45.638;11.714;2022-11-04T12:58:15;2.50;;;1.50;;
67804;SDS011;54603;45.638;11.714;2022-11-04T13:00:46;2.50;;;1.50;;
67804;SDS011;54603;45.638;11.714;2022-11-04T13:03:20;3.70;;;1.40;;
67804;SDS011;54603;45.638;11.714;2022-11-04T13:06:11;1.40;;;1.20;;
67804;SDS011;54603;45.638;11.714;2022-11-04T13:08:46;4.70;;;1.40;;
67804;SDS011;54603;45.638;11.714;2022-11-04T13:14:05;2.90;;;1.50;;
67804;SDS011;54603;45.638;11.714;2022-11-04T13:16:55;2.40;;;1.40;;
67804;SDS011;54603;45.638;11.714;2022-11-04T13:22:06;2.70;;;1.70;;
67804;SDS011;54603;45.638;11.714;2022-11-04T13:24:37;3.80;;;1.50;;
67804;SDS011;54603;45.638;11.714;2022-11-04T13:27:05;3.00;;;1.40;;
67804;SDS011;54603;45.638;11.714;2022-11-04T13:29:40;2.80;;;1.40;;
67804;SDS011;54603;45.638;11.714;2022-11-04T13:32:08;2.50;;;1.50;;
67804;SDS011;54603;45.638;11.714;2022-11-04T13:37:23;2.10;;;1.50;;
67804;SDS011;54603;45.638;11.714;2022-11-04T13:45:47;2.50;;;1.40;;
67804;SDS011;54603;45.638;11.714;2022-11-04T13:48:17;3.60;;;1.30;;
67804;SDS011;54603;45.638;11.714;2022-11-04T13:50:45;1.80;;;1.60;;
67804;SDS011;54603;45.638;11.714;2022-11-04T13:53:43;3.30;;;1.50;;
67804;SDS011;54603;45.638;11.714;2022-11-04T13:59:03;2.10;;;1.30;;
67804;SDS011;54603;45.638;11.714;2022-11-04T14:16:05;2.70;;;1.40;;
67804;SDS011;54603;45.638;11.714;2022-11-04T14:18:52;2.60;;;1.50;;
67804;SDS011;54603;45.638;11.714;2022-11-04T14:21:19;2.60;;;1.70;;
67804;SDS011;54603;45.638;11.714;2022-11-04T14:23:56;2.40;;;1.50;;
67804;SDS011;54603;45.638;11.714;2022-11-04T14:26:43;3.70;;;1.70;;
67804;SDS011;54603;45.638;11.714;2022-11-04T14:29:22;3.20;;;1.40;;
67804;SDS011;54603;45.638;11.714;2022-11-04T14:31:59;2.20;;;1.60;;
67804;SDS011;54603;45.638;11.714;2022-11-04T14:34:28;3.80;;;1.50;;
67804;SDS011;54603;45.638;11.714;2022-11-04T14:37:06;2.50;;;1.40;;
67804;SDS011;54603;45.638;11.714;2022-11-04T14:39:43;3.00;;;1.40;;
67804;SDS011;54603;45.638;11.714;2022-11-04T14:42:10;2.60;;;1.70;;
67804;SDS011;54603;45.638;11.714;2022-11-04T14:44:46;3.50;;;1.60;;
67804;SDS011;54603;45.638;11.714;2022-11-04T14:49:47;4.20;;;1.70;;
67804;SDS011;54603;45.638;11.714;2022-11-04T14:52:28;2.50;;;1.30;;
67804;SDS011;54603;45.638;11.714;2022-11-04T14:55:05;1.70;;;1.20;;
67804;SDS011;54603;45.638;11.714;2022-11-04T14:57:44;2.00;;;1.30;;
67804;SDS011;54603;45.638;11.714;2022-11-04T15:03:14;2.30;;;1.50;;
67804;SDS011;54603;45.638;11.714;2022-11-04T15:05:48;2.10;;;1.40;;
67804;SDS011;54603;45.638;11.714;2022-11-04T15:08:39;2.40;;;1.30;;
67804;SDS011;54603;45.638;11.714;2022-11-04T15:13:38;2.20;;;1.40;;
67804;SDS011;54603;45.638;11.714;2022-11-04T15:16:18;2.60;;;1.30;;
67804;SDS011;54603;45.638;11.714;2022-11-04T15:18:45;2.30;;;1.40;;
67804;SDS011;54603;45.638;11.714;2022-11-04T15:21:11;3.40;;;1.70;;
67804;SDS011;54603;45.638;11.714;2022-11-04T15:28:54;3.10;;;1.70;;
67804;SDS011;54603;45.638;11.714;2022-11-04T15:31:22;3.30;;;1.50;;
67804;SDS011;54603;45.638;11.714;2022-11-04T15:33:53;2.90;;;1.40;;
67804;SDS011;54603;45.638;11.714;2022-11-04T15:36:28;2.60;;;1.60;;
67804;SDS011;54603;45.638;11.714;2022-11-04T15:41:51;3.80;;;1.80;;
67804;SDS011;54603;45.638;11.714;2022-11-04T15:44:43;1.90;;;1.40;;
67804;SDS011;54603;45.638;11.714;2022-11-04T15:49:41;3.10;;;1.70;;
67804;SDS011;54603;45.638;11.714;2022-11-04T15:52:10;5.10;;;1.70;;
67804;SDS011;54603;45.638;11.714;2022-11-04T15:54:37;2.50;;;1.50;;
67804;SDS011;54603;45.638;11.714;2022-11-04T15:59:44;3.40;;;1.80;;
67804;SDS011;54603;45.638;11.714;2022-11-04T16:02:49;4.20;;;1.60;;
67804;SDS011;54603;45.638;11.714;2022-11-04T16:07:51;3.30;;;1.70;;
67804;SDS011;54603;45.638;11.714;2022-11-04T16:12:59;2.00;;;1.30;;
67804;SDS011;54603;45.638;11.714;2022-11-04T16:20:55;2.70;;;1.50;;
67804;SDS011;54603;45.638;11.714;2022-11-04T16:23:22;3.70;;;1.50;;
67804;SDS011;54603;45.638;11.714;2022-11-04T16:25:55;5.70;;;1.40;;
67804;SDS011;54603;45.638;11.714;2022-11-04T16:28:23;3.10;;;1.50;;
67804;SDS011;54603;45.638;11.714;2022-11-04T16:31:00;2.50;;;1.70;;
67804;SDS011;54603;45.638;11.714;2022-11-04T16:33:28;2.40;;;1.70;;
67804;SDS011;54603;45.638;11.714;2022-11-04T16:35:53;3.00;;;1.30;;
67804;SDS011;54603;45.638;11.714;2022-11-04T16:38:19;2.20;;;1.40;;
67804;SDS011;54603;45.638;11.714;2022-11-04T16:40:45;2.30;;;1.60;;
67804;SDS011;54603;45.638;11.714;2022-11-04T16:43:13;3.50;;;1.40;;
67804;SDS011;54603;45.638;11.714;2022-11-04T16:45:43;2.90;;;1.30;;
67804;SDS011;54603;45.638;11.714;2022-11-04T16:48:15;2.30;;;1.40;;
67804;SDS011;54603;45.638;11.714;2022-11-04T16:50:41;3.20;;;1.30;;
67804;SDS011;54603;45.638;11.714;2022-11-04T16:53:07;3.00;;;1.40;;
67804;SDS011;54603;45.638;11.714;2022-11-04T16:55:33;3.00;;;1.40;;
67804;SDS011;54603;45.638;11.714;2022-11-04T16:58:00;2.30;;;1.30;;
67804;SDS011;54603;45.638;11.714;2022-11-04T17:00:27;1.60;;;1.20;;
67804;SDS011;54603;45.638;11.714;2022-11-04T17:02:56;4.40;;;1.30;;
67804;SDS011;54603;45.638;11.714;2022-11-04T17:05:21;2.70;;;1.40;;
67804;SDS011;54603;45.638;11.714;2022-11-04T17:07:47;2.10;;;1.60;;
67804;SDS011;54603;45.638;11.714;2022-11-04T17:10:14;2.20;;;1.20;;
67804;SDS011;54603;45.638;11.714;2022-11-04T17:12:42;2.20;;;1.30;;
67804;SDS011;54603;45.638;11.714;2022-11-04T17:15:08;2.50;;;1.40;;
67804;SDS011;54603;45.638;11.714;2022-11-04T17:17:34;2.40;;;1.40;;
67804;SDS011;54603;45.638;11.714;2022-11-04T17:19:59;5.40;;;1.70;;
67804;SDS011;54603;45.638;11.714;2022-11-04T17:22:25;3.30;;;1.30;;
67804;SDS011;54603;45.638;11.714;2022-11-04T17:24:50;2.20;;;1.10;;
67804;SDS011;54603;45.638;11.714;2022-11-04T17:27:16;1.70;;;1.40;;
67804;SDS011;54603;45.638;11.714;2022-11-04T17:29:42;2.80;;;1.30;;
67804;SDS011;54603;45.638;11.714;2022-11-04T17:32:07;3.70;;;1.30;;
67804;SDS011;54603;45.638;11.714;2022-11-04T17:34:33;1.80;;;1.30;;
67804;SDS011;54603;45.638;11.714;2022-11-04T17:36:59;3.10;;;1.30;;
67804;SDS011;54603;45.638;11.714;2022-11-04T17:39:25;3.10;;;1.20;;
67804;SDS011;54603;45.638;11.714;2022-11-04T17:41:51;2.10;;;1.20;;
67804;SDS011;54603;45.638;11.714;2022-11-04T17:44:35;1.70;;;1.30;;
67804;SDS011;54603;45.638;11.714;2022-11-04T17:47:00;2.30;;;1.30;;
67804;SDS011;54603;45.638;11.714;2022-11-04T17:49:26;2.40;;;1.40;;
67804;SDS011;54603;45.638;11.714;2022-11-04T17:51:53;2.30;;;1.20;;
67804;SDS011;54603;45.638;11.714;2022-11-04T17:54:21;3.40;;;1.20;;
67804;SDS011;54603;45.638;11.714;2022-11-04T17:56:47;1.60;;;1.10;;
67804;SDS011;54603;45.638;11.714;2022-11-04T17:59:13;2.00;;;1.30;;
67804;SDS011;54603;45.638;11.714;2022-11-04T18:01:40;1.80;;;1.20;;